sensor_id;sensor_type;location;lat;lon;timestamp;temperature;humidity
55777;DHT22;54079;44.540;18.784;2022-12-07T00:02:09;9.80;99.60
55777;DHT22;54079;44.540;18.784;2022-12-07T00:04:35;9.70;99.40
55777;DHT22;54079;44.540;18.784;2022-12-07T00:07:01;9.50;98.90
55777;DHT22;54079;44.540;18.784;2022-12-07T00:09:28;9.30;99.90
55777;DHT22;54079;44.540;18.784;2022-12-07T00:11:54;9.10;99.90
55777;DHT22;54079;44.540;18.784;2022-12-07T00:14:20;8.90;99.90
55777;DHT22;54079;44.540;18.784;2022-12-07T00:16:49;8.70;99.90
55777;DHT22;54079;44.540;18.784;2022-12-07T00:19:17;8.70;99.90
55777;DHT22;54079;44.540;18.784;2022-12-07T00:21:43;8.80;99.90
55777;DHT22;54079;44.540;18.784;2022-12-07T00:24:10;8.80;99.90
55777;DHT22;54079;44.540;18.784;2022-12-07T00:26:38;9.00;99.90
55777;DHT22;54079;44.540;18.784;2022-12-07T00:29:16;9.20;99.90
55777;DHT22;54079;44.540;18.784;2022-12-07T00:31:42;9.20;99.90
55777;DHT22;54079;44.540;18.784;2022-12-07T00:34:17;9.30;99.90
55777;DHT22;54079;44.540;18.784;2022-12-07T00:36:43;9.10;99.90
55777;DHT22;54079;44.540;18.784;2022-12-07T00:39:09;9.00;99.90
55777;DHT22;54079;44.540;18.784;2022-12-07T00:41:35;8.90;99.90
55777;DHT22;54079;44.540;18.784;2022-12-07T00:44:01;8.80;99.90
55777;DHT22;54079;44.540;18.784;2022-12-07T00:46:27;8.80;99.90
55777;DHT22;54079;44.540;18.784;2022-12-07T00:48:54;8.70;99.90
55777;DHT22;54079;44.540;18.784;2022-12-07T00:51:22;8.70;99.90
55777;DHT22;54079;44.540;18.784;2022-12-07T00:53:49;8.90;99.90
55777;DHT22;54079;44.540;18.784;2022-12-07T00:58:42;9.00;99.90
55777;DHT22;54079;44.540;18.784;2022-12-07T01:01:09;9.10;99.90
55777;DHT22;54079;44.540;18.784;2022-12-07T01:03:36;9.00;99.90
55777;DHT22;54079;44.540;18.784;2022-12-07T01:06:03;9.00;99.90
55777;DHT22;54079;44.540;18.784;2022-12-07T01:08:29;8.80;99.90
55777;DHT22;54079;44.540;18.784;2022-12-07T01:11:04;8.80;99.90
55777;DHT22;54079;44.540;18.784;2022-12-07T01:13:31;8.70;99.90
55777;DHT22;54079;44.540;18.784;2022-12-07T01:15:59;8.50;99.90
55777;DHT22;54079;44.540;18.784;2022-12-07T01:18:26;8.40;99.90
55777;DHT22;54079;44.540;18.784;2022-12-07T01:21:11;8.30;99.90
55777;DHT22;54079;44.540;18.784;2022-12-07T01:23:37;8.20;99.90
55777;DHT22;54079;44.540;18.784;2022-12-07T01:26:06;8.10;99.90
55777;DHT22;54079;44.540;18.784;2022-12-07T01:28:33;7.90;99.90
55777;DHT22;54079;44.540;18.784;2022-12-07T01:33:28;7.80;99.90
55777;DHT22;54079;44.540;18.784;2022-12-07T01:36:00;7.90;99.90
55777;DHT22;54079;44.540;18.784;2022-12-07T01:38:26;7.90;99.90
55777;DHT22;54079;44.540;18.784;2022-12-07T01:40:56;7.70;99.90
55777;DHT22;54079;44.540;18.784;2022-12-07T01:43:24;7.60;99.90
55777;DHT22;54079;44.540;18.784;2022-12-07T01:45:51;7.60;99.90
55777;DHT22;54079;44.540;18.784;2022-12-07T01:48:20;7.70;99.90
55777;DHT22;54079;44.540;18.784;2022-12-07T01:50:48;7.60;99.90
55777;DHT22;54079;44.540;18.784;2022-12-07T01:53:17;7.50;99.90
55777;DHT22;54079;44.540;18.784;2022-12-07T01:55:47;7.70;99.90
55777;DHT22;54079;44.540;18.784;2022-12-07T01:58:14;7.80;99.90
55777;DHT22;54079;44.540;18.784;2022-12-07T02:00:42;7.80;99.90
55777;DHT22;54079;44.540;18.784;2022-12-07T02:03:13;8.00;99.90
55777;DHT22;54079;44.540;18.784;2022-12-07T02:05:41;8.00;99.90
55777;DHT22;54079;44.540;18.784;2022-12-07T02:08:09;8.20;99.90
55777;DHT22;54079;44.540;18.784;2022-12-07T02:10:36;8.10;99.90
55777;DHT22;54079;44.540;18.784;2022-12-07T02:18:31;8.50;99.90
55777;DHT22;54079;44.540;18.784;2022-12-07T02:29:45;9.10;99.90
55777;DHT22;54079;44.540;18.784;2022-12-07T02:32:24;9.10;99.90
55777;DHT22;54079;44.540;18.784;2022-12-07T02:35:02;9.20;99.90
55777;DHT22;54079;44.540;18.784;2022-12-07T02:38:11;9.40;99.90
55777;DHT22;54079;44.540;18.784;2022-12-07T02:40:50;9.40;99.90
55777;DHT22;54079;44.540;18.784;2022-12-07T02:45:51;9.50;99.90
55777;DHT22;54079;44.540;18.784;2022-12-07T02:48:19;9.60;99.90
55777;DHT22;54079;44.540;18.784;2022-12-07T02:50:50;9.70;99.90
55777;DHT22;54079;44.540;18.784;2022-12-07T02:53:34;9.70;99.90
55777;DHT22;54079;44.540;18.784;2022-12-07T02:59:16;9.40;99.90
55777;DHT22;54079;44.540;18.784;2022-12-07T03:13:04;9.10;99.90
55777;DHT22;54079;44.540;18.784;2022-12-07T03:18:21;9.10;99.90
55777;DHT22;54079;44.540;18.784;2022-12-07T03:20:51;9.00;99.90
55777;DHT22;54079;44.540;18.784;2022-12-07T03:23:19;9.10;99.90
55777;DHT22;54079;44.540;18.784;2022-12-07T03:25:49;9.40;99.90
55777;DHT22;54079;44.540;18.784;2022-12-07T03:28:18;9.30;99.90
55777;DHT22;54079;44.540;18.784;2022-12-07T03:31:33;9.30;99.90
55777;DHT22;54079;44.540;18.784;2022-12-07T03:36:49;9.30;99.90
55777;DHT22;54079;44.540;18.784;2022-12-07T03:39:30;9.40;99.90
55777;DHT22;54079;44.540;18.784;2022-12-07T03:41:59;9.40;99.90
55777;DHT22;54079;44.540;18.784;2022-12-07T03:44:26;9.60;99.90
55777;DHT22;54079;44.540;18.784;2022-12-07T03:47:13;9.60;99.90
55777;DHT22;54079;44.540;18.784;2022-12-07T03:49:50;9.60;99.90
55777;DHT22;54079;44.540;18.784;2022-12-07T03:57:43;9.90;99.90
55777;DHT22;54079;44.540;18.784;2022-12-07T04:00:10;9.70;99.90
55777;DHT22;54079;44.540;18.784;2022-12-07T04:02:37;9.60;99.90
55777;DHT22;54079;44.540;18.784;2022-12-07T04:05:03;9.70;99.90
55777;DHT22;54079;44.540;18.784;2022-12-07T04:07:29;9.70;99.90
55777;DHT22;54079;44.540;18.784;2022-12-07T04:09:55;9.70;99.90
55777;DHT22;54079;44.540;18.784;2022-12-07T04:12:22;9.80;99.90
55777;DHT22;54079;44.540;18.784;2022-12-07T04:14:48;9.60;99.90
55777;DHT22;54079;44.540;18.784;2022-12-07T04:17:14;9.60;99.90
55777;DHT22;54079;44.540;18.784;2022-12-07T04:19:40;9.40;99.90
55777;DHT22;54079;44.540;18.784;2022-12-07T04:22:06;9.40;99.90
55777;DHT22;54079;44.540;18.784;2022-12-07T04:24:32;9.40;99.90
55777;DHT22;54079;44.540;18.784;2022-12-07T04:26:58;9.30;99.90
55777;DHT22;54079;44.540;18.784;2022-12-07T04:29:25;9.20;99.90
55777;DHT22;54079;44.540;18.784;2022-12-07T04:31:51;9.00;99.90
55777;DHT22;54079;44.540;18.784;2022-12-07T04:34:18;8.80;99.90
55777;DHT22;54079;44.540;18.784;2022-12-07T04:36:45;8.70;99.90
55777;DHT22;54079;44.540;18.784;2022-12-07T04:39:31;8.70;99.90
55777;DHT22;54079;44.540;18.784;2022-12-07T04:41:57;8.80;99.90
55777;DHT22;54079;44.540;18.784;2022-12-07T04:44:25;9.00;99.90
55777;DHT22;54079;44.540;18.784;2022-12-07T04:46:52;9.20;99.90
55777;DHT22;54079;44.540;18.784;2022-12-07T04:49:18;9.40;99.90
55777;DHT22;54079;44.540;18.784;2022-12-07T04:51:45;9.40;99.90
55777;DHT22;54079;44.540;18.784;2022-12-07T04:54:11;9.40;99.90
55777;DHT22;54079;44.540;18.784;2022-12-07T04:56:38;9.30;99.90
55777;DHT22;54079;44.540;18.784;2022-12-07T04:59:04;9.10;99.90
55777;DHT22;54079;44.540;18.784;2022-12-07T05:01:30;9.10;99.90
55777;DHT22;54079;44.540;18.784;2022-12-07T05:03:56;9.00;99.90
55777;DHT22;54079;44.540;18.784;2022-12-07T05:06:22;8.80;99.90
55777;DHT22;54079;44.540;18.784;2022-12-07T05:08:48;8.90;99.90
55777;DHT22;54079;44.540;18.784;2022-12-07T05:11:15;9.00;99.90
55777;DHT22;54079;44.540;18.784;2022-12-07T05:14:13;9.10;99.90
55777;DHT22;54079;44.540;18.784;2022-12-07T05:16:39;9.30;99.90
55777;DHT22;54079;44.540;18.784;2022-12-07T05:19:06;9.50;99.90
55777;DHT22;54079;44.540;18.784;2022-12-07T05:21:32;9.70;99.90
55777;DHT22;54079;44.540;18.784;2022-12-07T05:23:58;9.60;99.90
55777;DHT22;54079;44.540;18.784;2022-12-07T05:26:24;9.60;99.90
55777;DHT22;54079;44.540;18.784;2022-12-07T05:28:52;9.70;99.90
55777;DHT22;54079;44.540;18.784;2022-12-07T05:31:18;9.70;99.90
55777;DHT22;54079;44.540;18.784;2022-12-07T05:33:44;9.40;99.90
55777;DHT22;54079;44.540;18.784;2022-12-07T05:36:10;9.40;99.90
55777;DHT22;54079;44.540;18.784;2022-12-07T05:38:36;9.50;99.90
55777;DHT22;54079;44.540;18.784;2022-12-07T05:41:03;9.60;99.90
55777;DHT22;54079;44.540;18.784;2022-12-07T05:43:30;9.60;99.90
55777;DHT22;54079;44.540;18.784;2022-12-07T05:45:56;9.60;99.90
55777;DHT22;54079;44.540;18.784;2022-12-07T05:48:22;9.70;99.90
55777;DHT22;54079;44.540;18.784;2022-12-07T05:50:49;9.50;99.90
55777;DHT22;54079;44.540;18.784;2022-12-07T05:53:15;9.40;99.90
55777;DHT22;54079;44.540;18.784;2022-12-07T05:55:41;9.40;99.90
55777;DHT22;54079;44.540;18.784;2022-12-07T05:58:07;9.60;99.90
55777;DHT22;54079;44.540;18.784;2022-12-07T06:00:51;9.50;99.90
55777;DHT22;54079;44.540;18.784;2022-12-07T06:03:19;9.50;99.90
55777;DHT22;54079;44.540;18.784;2022-12-07T06:05:45;9.70;99.90
55777;DHT22;54079;44.540;18.784;2022-12-07T06:08:11;9.70;99.90
55777;DHT22;54079;44.540;18.784;2022-12-07T06:10:37;9.70;99.90
55777;DHT22;54079;44.540;18.784;2022-12-07T06:13:02;9.80;99.90
55777;DHT22;54079;44.540;18.784;2022-12-07T06:15:28;9.80;99.90
55777;DHT22;54079;44.540;18.784;2022-12-07T06:17:54;9.80;99.90
55777;DHT22;54079;44.540;18.784;2022-12-07T06:20:20;9.90;99.90
55777;DHT22;54079;44.540;18.784;2022-12-07T06:22:46;9.90;99.60
55777;DHT22;54079;44.540;18.784;2022-12-07T06:25:12;9.80;99.90
55777;DHT22;54079;44.540;18.784;2022-12-07T06:27:37;9.80;99.90
55777;DHT22;54079;44.540;18.784;2022-12-07T06:30:04;9.60;99.90
55777;DHT22;54079;44.540;18.784;2022-12-07T06:32:36;9.70;99.90
55777;DHT22;54079;44.540;18.784;2022-12-07T06:35:03;9.70;99.90
55777;DHT22;54079;44.540;18.784;2022-12-07T06:37:29;9.60;99.90
55777;DHT22;54079;44.540;18.784;2022-12-07T06:39:55;9.70;99.90
55777;DHT22;54079;44.540;18.784;2022-12-07T06:42:21;9.80;99.90
55777;DHT22;54079;44.540;18.784;2022-12-07T06:44:47;9.80;99.80
55777;DHT22;54079;44.540;18.784;2022-12-07T06:47:13;9.80;99.90
55777;DHT22;54079;44.540;18.784;2022-12-07T06:49:39;9.80;99.80
55777;DHT22;54079;44.540;18.784;2022-12-07T06:52:05;9.80;99.90
55777;DHT22;54079;44.540;18.784;2022-12-07T06:54:31;9.80;99.80
55777;DHT22;54079;44.540;18.784;2022-12-07T06:56:57;9.90;99.70
55777;DHT22;54079;44.540;18.784;2022-12-07T06:59:23;9.70;99.90
55777;DHT22;54079;44.540;18.784;2022-12-07T07:01:49;9.70;99.90
55777;DHT22;54079;44.540;18.784;2022-12-07T07:04:14;9.50;99.90
55777;DHT22;54079;44.540;18.784;2022-12-07T07:06:40;9.60;99.90
55777;DHT22;54079;44.540;18.784;2022-12-07T07:09:06;9.80;99.80
55777;DHT22;54079;44.540;18.784;2022-12-07T07:11:32;9.90;99.20
55777;DHT22;54079;44.540;18.784;2022-12-07T07:13:58;10.00;98.80
55777;DHT22;54079;44.540;18.784;2022-12-07T07:16:28;9.70;98.30
55777;DHT22;54079;44.540;18.784;2022-12-07T07:18:55;9.50;99.40
55777;DHT22;54079;44.540;18.784;2022-12-07T07:21:22;9.30;99.90
55777;DHT22;54079;44.540;18.784;2022-12-07T07:23:48;9.40;99.90
55777;DHT22;54079;44.540;18.784;2022-12-07T07:26:14;9.40;99.90
55777;DHT22;54079;44.540;18.784;2022-12-07T07:28:40;9.60;99.90
55777;DHT22;54079;44.540;18.784;2022-12-07T07:31:06;9.60;99.90
55777;DHT22;54079;44.540;18.784;2022-12-07T07:33:32;9.60;99.90
55777;DHT22;54079;44.540;18.784;2022-12-07T07:35:58;9.50;99.90
55777;DHT22;54079;44.540;18.784;2022-12-07T07:38:24;9.50;99.90
55777;DHT22;54079;44.540;18.784;2022-12-07T07:40:50;9.70;99.90
55777;DHT22;54079;44.540;18.784;2022-12-07T07:43:16;9.60;99.90
55777;DHT22;54079;44.540;18.784;2022-12-07T07:45:42;9.50;99.90
55777;DHT22;54079;44.540;18.784;2022-12-07T07:48:08;9.40;99.90
55777;DHT22;54079;44.540;18.784;2022-12-07T07:50:34;9.30;99.90
55777;DHT22;54079;44.540;18.784;2022-12-07T07:53:00;9.50;99.90
55777;DHT22;54079;44.540;18.784;2022-12-07T07:55:26;9.70;99.90
55777;DHT22;54079;44.540;18.784;2022-12-07T07:57:51;9.70;99.90
55777;DHT22;54079;44.540;18.784;2022-12-07T08:00:17;9.80;99.90
55777;DHT22;54079;44.540;18.784;2022-12-07T08:02:44;9.80;99.90
55777;DHT22;54079;44.540;18.784;2022-12-07T08:05:10;9.90;99.80
55777;DHT22;54079;44.540;18.784;2022-12-07T08:07:37;10.00;99.50
55777;DHT22;54079;44.540;18.784;2022-12-07T08:10:03;9.80;99.90
55777;DHT22;54079;44.540;18.784;2022-12-07T08:12:29;9.80;99.90
55777;DHT22;54079;44.540;18.784;2022-12-07T08:14:55;9.90;99.90
55777;DHT22;54079;44.540;18.784;2022-12-07T08:17:21;9.90;99.90
55777;DHT22;54079;44.540;18.784;2022-12-07T08:19:47;10.10;99.90
55777;DHT22;54079;44.540;18.784;2022-12-07T08:22:13;10.10;99.90
55777;DHT22;54079;44.540;18.784;2022-12-07T08:24:39;10.20;99.90
55777;DHT22;54079;44.540;18.784;2022-12-07T08:27:05;10.30;99.90
55777;DHT22;54079;44.540;18.784;2022-12-07T08:29:31;10.40;98.90
55777;DHT22;54079;44.540;18.784;2022-12-07T08:31:57;10.40;97.70
55777;DHT22;54079;44.540;18.784;2022-12-07T08:34:23;10.40;98.40
55777;DHT22;54079;44.540;18.784;2022-12-07T08:36:48;10.50;98.70
55777;DHT22;54079;44.540;18.784;2022-12-07T08:39:14;10.60;99.10
55777;DHT22;54079;44.540;18.784;2022-12-07T08:41:40;10.40;97.20
55777;DHT22;54079;44.540;18.784;2022-12-07T08:44:06;10.30;98.60
55777;DHT22;54079;44.540;18.784;2022-12-07T08:46:56;10.40;98.10
55777;DHT22;54079;44.540;18.784;2022-12-07T08:49:47;10.60;98.30
55777;DHT22;54079;44.540;18.784;2022-12-07T08:52:13;10.60;97.60
55777;DHT22;54079;44.540;18.784;2022-12-07T08:54:40;10.90;98.60
55777;DHT22;54079;44.540;18.784;2022-12-07T08:57:07;10.90;97.60
55777;DHT22;54079;44.540;18.784;2022-12-07T08:59:35;10.90;97.20
55777;DHT22;54079;44.540;18.784;2022-12-07T09:02:01;10.90;97.00
55777;DHT22;54079;44.540;18.784;2022-12-07T09:04:27;10.90;97.20
55777;DHT22;54079;44.540;18.784;2022-12-07T09:06:54;11.00;97.20
55777;DHT22;54079;44.540;18.784;2022-12-07T09:09:20;11.00;96.60
55777;DHT22;54079;44.540;18.784;2022-12-07T09:11:46;10.90;96.00
55777;DHT22;54079;44.540;18.784;2022-12-07T09:14:12;10.90;96.40
55777;DHT22;54079;44.540;18.784;2022-12-07T09:16:39;11.00;96.70
55777;DHT22;54079;44.540;18.784;2022-12-07T09:19:05;11.10;96.80
55777;DHT22;54079;44.540;18.784;2022-12-07T09:21:31;11.10;96.60
55777;DHT22;54079;44.540;18.784;2022-12-07T09:23:57;11.10;96.60
55777;DHT22;54079;44.540;18.784;2022-12-07T09:26:23;11.10;96.50
55777;DHT22;54079;44.540;18.784;2022-12-07T09:28:48;11.20;96.90
55777;DHT22;54079;44.540;18.784;2022-12-07T09:31:14;11.10;95.10
55777;DHT22;54079;44.540;18.784;2022-12-07T09:33:40;11.10;95.40
55777;DHT22;54079;44.540;18.784;2022-12-07T09:36:07;11.00;95.90
55777;DHT22;54079;44.540;18.784;2022-12-07T09:38:34;11.10;95.90
55777;DHT22;54079;44.540;18.784;2022-12-07T09:41:05;11.20;96.40
55777;DHT22;54079;44.540;18.784;2022-12-07T09:43:34;11.20;96.70
55777;DHT22;54079;44.540;18.784;2022-12-07T09:46:01;11.20;96.50
55777;DHT22;54079;44.540;18.784;2022-12-07T09:48:36;11.30;96.00
55777;DHT22;54079;44.540;18.784;2022-12-07T09:53:41;11.60;95.10
55777;DHT22;54079;44.540;18.784;2022-12-07T09:56:12;11.60;94.70
55777;DHT22;54079;44.540;18.784;2022-12-07T09:58:39;11.80;95.00
55777;DHT22;54079;44.540;18.784;2022-12-07T10:03:39;11.90;94.80
55777;DHT22;54079;44.540;18.784;2022-12-07T10:06:06;12.10;94.40
55777;DHT22;54079;44.540;18.784;2022-12-07T10:08:33;12.20;94.60
55777;DHT22;54079;44.540;18.784;2022-12-07T10:11:03;12.20;94.80
55777;DHT22;54079;44.540;18.784;2022-12-07T10:13:46;12.30;94.30
55777;DHT22;54079;44.540;18.784;2022-12-07T10:16:38;12.30;94.10
55777;DHT22;54079;44.540;18.784;2022-12-07T10:19:30;12.40;93.40
55777;DHT22;54079;44.540;18.784;2022-12-07T10:22:14;12.30;93.60
55777;DHT22;54079;44.540;18.784;2022-12-07T10:24:42;12.40;93.70
55777;DHT22;54079;44.540;18.784;2022-12-07T10:27:22;12.50;93.50
55777;DHT22;54079;44.540;18.784;2022-12-07T10:29:52;12.50;93.60
55777;DHT22;54079;44.540;18.784;2022-12-07T10:34:45;12.60;92.90
55777;DHT22;54079;44.540;18.784;2022-12-07T10:42:26;12.70;92.00
55777;DHT22;54079;44.540;18.784;2022-12-07T10:45:17;12.60;91.50
55777;DHT22;54079;44.540;18.784;2022-12-07T10:56:01;12.40;91.50
55777;DHT22;54079;44.540;18.784;2022-12-07T10:58:40;12.50;91.70
55777;DHT22;54079;44.540;18.784;2022-12-07T11:12:30;12.40;92.40
55777;DHT22;54079;44.540;18.784;2022-12-07T11:37:35;12.30;92.90
55777;DHT22;54079;44.540;18.784;2022-12-07T11:43:01;12.40;92.40
55777;DHT22;54079;44.540;18.784;2022-12-07T11:45:32;12.40;92.70
55777;DHT22;54079;44.540;18.784;2022-12-07T11:48:14;12.50;92.90
55777;DHT22;54079;44.540;18.784;2022-12-07T11:50:47;12.60;92.70
55777;DHT22;54079;44.540;18.784;2022-12-07T12:01:58;13.00;92.00
55777;DHT22;54079;44.540;18.784;2022-12-07T12:07:01;12.80;91.80
55777;DHT22;54079;44.540;18.784;2022-12-07T12:09:36;12.80;91.50
55777;DHT22;54079;44.540;18.784;2022-12-07T12:12:52;12.60;91.70
55777;DHT22;54079;44.540;18.784;2022-12-07T12:15:28;12.60;91.80
55777;DHT22;54079;44.540;18.784;2022-12-07T12:20:57;12.60;92.10
55777;DHT22;54079;44.540;18.784;2022-12-07T12:23:46;12.50;91.90
55777;DHT22;54079;44.540;18.784;2022-12-07T12:26:25;12.50;91.90
55777;DHT22;54079;44.540;18.784;2022-12-07T12:28:58;12.30;92.50
55777;DHT22;54079;44.540;18.784;2022-12-07T12:33:57;12.20;93.00
55777;DHT22;54079;44.540;18.784;2022-12-07T12:36:47;12.10;93.10
55777;DHT22;54079;44.540;18.784;2022-12-07T12:39:17;12.10;92.30
55777;DHT22;54079;44.540;18.784;2022-12-07T12:46:53;12.10;92.50
55777;DHT22;54079;44.540;18.784;2022-12-07T12:51:50;12.00;92.60
55777;DHT22;54079;44.540;18.784;2022-12-07T12:54:33;12.10;92.00
55777;DHT22;54079;44.540;18.784;2022-12-07T13:00:01;12.00;92.50
55777;DHT22;54079;44.540;18.784;2022-12-07T13:02:32;11.80;92.10
55777;DHT22;54079;44.540;18.784;2022-12-07T13:08:31;11.10;93.80
55777;DHT22;54079;44.540;18.784;2022-12-07T13:10:50;11.20;94.10
55777;DHT22;54079;44.540;18.784;2022-12-07T13:29:16;10.90;94.00
55777;DHT22;54079;44.540;18.784;2022-12-07T13:31:45;10.70;94.80
55777;DHT22;54079;44.540;18.784;2022-12-07T13:34:32;10.50;96.00
55777;DHT22;54079;44.540;18.784;2022-12-07T13:39:35;10.50;96.00
55777;DHT22;54079;44.540;18.784;2022-12-07T13:42:28;10.60;95.10
55777;DHT22;54079;44.540;18.784;2022-12-07T13:44:56;10.60;96.00
55777;DHT22;54079;44.540;18.784;2022-12-07T13:47:35;10.40;96.50
55777;DHT22;54079;44.540;18.784;2022-12-07T13:50:28;10.40;96.40
55777;DHT22;54079;44.540;18.784;2022-12-07T13:52:56;10.30;97.60
55777;DHT22;54079;44.540;18.784;2022-12-07T13:55:22;10.30;97.20
55777;DHT22;54079;44.540;18.784;2022-12-07T13:57:51;10.30;97.40
55777;DHT22;54079;44.540;18.784;2022-12-07T14:00:26;10.30;96.40
55777;DHT22;54079;44.540;18.784;2022-12-07T14:08:21;9.90;99.90
55777;DHT22;54079;44.540;18.784;2022-12-07T14:10:55;10.00;99.90
55777;DHT22;54079;44.540;18.784;2022-12-07T14:13:50;10.00;99.90
55777;DHT22;54079;44.540;18.784;2022-12-07T14:18:50;10.00;99.90
55777;DHT22;54079;44.540;18.784;2022-12-07T14:21:18;10.20;99.40
55777;DHT22;54079;44.540;18.784;2022-12-07T14:23:45;10.20;97.80
55777;DHT22;54079;44.540;18.784;2022-12-07T14:26:14;10.00;99.10
55777;DHT22;54079;44.540;18.784;2022-12-07T14:28:41;9.90;98.90
55777;DHT22;54079;44.540;18.784;2022-12-07T14:31:20;9.70;98.40
55777;DHT22;54079;44.540;18.784;2022-12-07T14:33:47;9.70;99.20
55777;DHT22;54079;44.540;18.784;2022-12-07T14:36:14;9.40;99.90
55777;DHT22;54079;44.540;18.784;2022-12-07T14:38:40;9.00;99.90
55777;DHT22;54079;44.540;18.784;2022-12-07T14:41:12;9.10;99.90
55777;DHT22;54079;44.540;18.784;2022-12-07T14:43:57;9.40;99.90
55777;DHT22;54079;44.540;18.784;2022-12-07T14:46:23;9.30;99.90
55777;DHT22;54079;44.540;18.784;2022-12-07T14:48:49;9.30;99.90
55777;DHT22;54079;44.540;18.784;2022-12-07T14:51:16;9.40;99.90
55777;DHT22;54079;44.540;18.784;2022-12-07T14:53:46;9.40;99.90
55777;DHT22;54079;44.540;18.784;2022-12-07T14:56:13;9.30;99.90
55777;DHT22;54079;44.540;18.784;2022-12-07T14:58:40;8.80;99.90
55777;DHT22;54079;44.540;18.784;2022-12-07T15:01:06;8.80;99.90
55777;DHT22;54079;44.540;18.784;2022-12-07T15:03:32;8.90;99.90
55777;DHT22;54079;44.540;18.784;2022-12-07T15:06:00;8.60;99.90
55777;DHT22;54079;44.540;18.784;2022-12-07T15:08:26;8.50;99.90
55777;DHT22;54079;44.540;18.784;2022-12-07T15:10:52;8.60;99.90
55777;DHT22;54079;44.540;18.784;2022-12-07T15:13:18;8.80;99.90
55777;DHT22;54079;44.540;18.784;2022-12-07T15:16:02;8.70;99.90
55777;DHT22;54079;44.540;18.784;2022-12-07T15:18:28;8.60;99.90
55777;DHT22;54079;44.540;18.784;2022-12-07T15:20:54;8.70;99.90
55777;DHT22;54079;44.540;18.784;2022-12-07T15:23:20;9.00;99.90
55777;DHT22;54079;44.540;18.784;2022-12-07T15:25:48;9.30;99.90
55777;DHT22;54079;44.540;18.784;2022-12-07T15:28:14;9.40;99.90
55777;DHT22;54079;44.540;18.784;2022-12-07T15:30:42;9.40;99.50
55777;DHT22;54079;44.540;18.784;2022-12-07T15:33:09;9.40;99.80
55777;DHT22;54079;44.540;18.784;2022-12-07T15:35:42;9.60;98.50
55777;DHT22;54079;44.540;18.784;2022-12-07T15:38:08;9.50;98.80
55777;DHT22;54079;44.540;18.784;2022-12-07T15:40:34;9.40;98.80
55777;DHT22;54079;44.540;18.784;2022-12-07T15:43:01;9.60;98.30
55777;DHT22;54079;44.540;18.784;2022-12-07T15:45:27;9.60;98.40
55777;DHT22;54079;44.540;18.784;2022-12-07T15:47:53;9.60;96.80
55777;DHT22;54079;44.540;18.784;2022-12-07T15:50:21;9.30;97.60
55777;DHT22;54079;44.540;18.784;2022-12-07T15:52:48;9.40;99.20
55777;DHT22;54079;44.540;18.784;2022-12-07T15:55:14;9.60;97.70
55777;DHT22;54079;44.540;18.784;2022-12-07T15:57:40;9.70;97.40
55777;DHT22;54079;44.540;18.784;2022-12-07T16:00:07;9.70;97.30
55777;DHT22;54079;44.540;18.784;2022-12-07T16:02:37;9.50;98.10
55777;DHT22;54079;44.540;18.784;2022-12-07T16:05:03;9.60;97.80
55777;DHT22;54079;44.540;18.784;2022-12-07T16:07:29;9.50;98.10
55777;DHT22;54079;44.540;18.784;2022-12-07T16:09:55;9.60;97.90
55777;DHT22;54079;44.540;18.784;2022-12-07T16:12:21;9.30;97.90
55777;DHT22;54079;44.540;18.784;2022-12-07T16:14:47;9.30;98.30
55777;DHT22;54079;44.540;18.784;2022-12-07T16:17:13;9.20;98.50
55777;DHT22;54079;44.540;18.784;2022-12-07T16:19:39;9.00;98.30
55777;DHT22;54079;44.540;18.784;2022-12-07T16:22:05;9.00;98.70
55777;DHT22;54079;44.540;18.784;2022-12-07T16:24:31;9.00;98.50
55777;DHT22;54079;44.540;18.784;2022-12-07T16:26:57;9.00;98.70
55777;DHT22;54079;44.540;18.784;2022-12-07T16:29:23;9.10;99.70
55777;DHT22;54079;44.540;18.784;2022-12-07T16:31:50;9.20;97.50
55777;DHT22;54079;44.540;18.784;2022-12-07T16:34:16;9.40;96.70
55777;DHT22;54079;44.540;18.784;2022-12-07T16:36:43;9.50;97.00
55777;DHT22;54079;44.540;18.784;2022-12-07T16:39:09;9.60;97.40
55777;DHT22;54079;44.540;18.784;2022-12-07T16:41:35;9.70;97.10
55777;DHT22;54079;44.540;18.784;2022-12-07T16:44:04;9.80;96.50
55777;DHT22;54079;44.540;18.784;2022-12-07T16:46:32;9.90;95.90
55777;DHT22;54079;44.540;18.784;2022-12-07T16:48:58;9.80;96.10
55777;DHT22;54079;44.540;18.784;2022-12-07T16:51:24;9.60;95.80
55777;DHT22;54079;44.540;18.784;2022-12-07T16:53:52;9.40;95.40
55777;DHT22;54079;44.540;18.784;2022-12-07T16:56:19;9.20;96.30
55777;DHT22;54079;44.540;18.784;2022-12-07T16:58:45;9.20;97.30
55777;DHT22;54079;44.540;18.784;2022-12-07T17:01:16;9.20;98.30
55777;DHT22;54079;44.540;18.784;2022-12-07T17:03:43;9.40;97.40
55777;DHT22;54079;44.540;18.784;2022-12-07T17:06:20;9.40;96.90
55777;DHT22;54079;44.540;18.784;2022-12-07T17:08:47;9.20;96.40
55777;DHT22;54079;44.540;18.784;2022-12-07T17:11:22;9.30;96.40
55777;DHT22;54079;44.540;18.784;2022-12-07T17:13:48;9.50;94.70
55777;DHT22;54079;44.540;18.784;2022-12-07T17:16:33;9.60;95.10
55777;DHT22;54079;44.540;18.784;2022-12-07T17:18:59;9.60;94.80
55777;DHT22;54079;44.540;18.784;2022-12-07T17:21:25;9.40;94.40
55777;DHT22;54079;44.540;18.784;2022-12-07T17:23:51;9.30;94.80
55777;DHT22;54079;44.540;18.784;2022-12-07T17:26:20;9.30;93.60
55777;DHT22;54079;44.540;18.784;2022-12-07T17:28:47;9.30;94.10
55777;DHT22;54079;44.540;18.784;2022-12-07T17:31:16;9.10;95.00
55777;DHT22;54079;44.540;18.784;2022-12-07T17:33:42;9.00;95.00
55777;DHT22;54079;44.540;18.784;2022-12-07T17:36:17;9.10;95.20
55777;DHT22;54079;44.540;18.784;2022-12-07T17:38:43;8.90;94.70
55777;DHT22;54079;44.540;18.784;2022-12-07T17:41:11;8.90;95.10
55777;DHT22;54079;44.540;18.784;2022-12-07T17:43:38;8.80;96.10
55777;DHT22;54079;44.540;18.784;2022-12-07T17:46:09;8.80;94.60
55777;DHT22;54079;44.540;18.784;2022-12-07T17:48:35;9.00;95.80
55777;DHT22;54079;44.540;18.784;2022-12-07T17:51:02;9.20;94.80
55777;DHT22;54079;44.540;18.784;2022-12-07T17:53:50;9.00;95.30
55777;DHT22;54079;44.540;18.784;2022-12-07T17:56:16;9.10;94.50
55777;DHT22;54079;44.540;18.784;2022-12-07T17:58:42;9.00;95.00
55777;DHT22;54079;44.540;18.784;2022-12-07T18:01:09;8.80;95.80
55777;DHT22;54079;44.540;18.784;2022-12-07T18:03:35;8.80;95.30
55777;DHT22;54079;44.540;18.784;2022-12-07T18:06:01;8.60;96.50
55777;DHT22;54079;44.540;18.784;2022-12-07T18:08:27;8.60;96.90
55777;DHT22;54079;44.540;18.784;2022-12-07T18:10:59;8.80;96.20
55777;DHT22;54079;44.540;18.784;2022-12-07T18:13:25;8.90;95.20
55777;DHT22;54079;44.540;18.784;2022-12-07T18:16:04;9.10;94.40
55777;DHT22;54079;44.540;18.784;2022-12-07T18:18:30;9.10;95.40
55777;DHT22;54079;44.540;18.784;2022-12-07T18:20:56;9.10;95.30
55777;DHT22;54079;44.540;18.784;2022-12-07T18:23:22;9.00;93.80